Time;durP1;ratioP1;P1;durP2;ratioP2;P2;SDS_P1;SDS_P2;PMS_P1;PMS_P2;Temp;Humidity;BMP_temperature;BMP_pressure;BME280_temperature;BME280_humidity;BME280_pressure;Samples;Min_cycle;Max_cycle;Signal;HPM_P1;HPM_P2
2022/05/18 00:00:20;;;;;;;1516.38;460.67;;;;;;;;;;6335533;22;19996;-85
2022/05/18 00:02:46;;;;;;;;;;;;;;;;;;6335438;22;20021;-86
2022/05/18 00:05:12;;;;;;;1476.70;451.20;;;;;;;;;;6335100;22;19969;-85
2022/05/18 00:07:38;;;;;;;1497.90;454.77;;;;;;;;;;6335281;22;19998;-87
2022/05/18 00:10:05;;;;;;;1488.97;449.55;;;;;;;;;;6334829;22;20074;-89
2022/05/18 00:12:31;;;;;;;1499.97;452.83;;;;;;;;;;6335260;22;20003;-85
2022/05/18 00:14:57;;;;;;;1494.97;453.42;;;;;;;;;;6334618;22;20006;-84
2022/05/18 00:17:23;;;;;;;1484.30;446.35;;;;;;;;;;6334997;22;19998;-86
2022/05/18 00:19:49;;;;;;;1491.15;451.05;;;;;;;;;;6334715;22;20003;-85
2022/05/18 00:22:15;;;;;;;1475.22;444.23;;;;;;;;;;6333698;22;20015;-85
2022/05/18 00:24:42;;;;;;;1479.13;445.27;;;;;;;;;;6334790;22;19995;-86
2022/05/18 00:27:08;;;;;;;1515.35;419.15;;;;;;;;;;6334013;22;20353;-85
2022/05/18 00:29:34;;;;;;;1512.85;444.55;;;;;;;;;;6333551;22;20003;-87
2022/05/18 00:32:01;;;;;;;1458.38;428.80;;;;;;;;;;6334486;22;20003;-85
2022/05/18 00:34:28;;;;;;;1454.80;429.80;;;;;;;;;;6334319;22;20060;-85
2022/05/18 00:36:54;;;;;;;1454.97;431.20;;;;;;;;;;6333979;22;20007;-86
2022/05/18 00:39:21;;;;;;;1416.38;418.75;;;;;;;;;;6307118;22;20030;-86
2022/05/18 00:41:47;;;;;;;1457.03;432.83;;;;;;;;;;6334292;22;20004;-84
2022/05/18 00:44:13;;;;;;;1449.55;428.25;;;;;;;;;;6333572;22;20010;-85
2022/05/18 00:46:39;;;;;;;1440.60;425.80;;;;;;;;;;6307241;22;20042;-86
2022/05/18 00:49:07;;;;;;;1426.75;419.27;;;;;;;;;;6334049;22;20002;-85
2022/05/18 00:51:36;;;;;;;1402.03;412.30;;;;;;;;;;6333441;22;20006;-86
2022/05/18 00:54:09;;;;;;;1445.45;427.80;;;;;;;;;;6334480;22;20474;-87
2022/05/18 00:56:50;;;;;;;1422.57;420.42;;;;;;;;;;6350400;22;20002;-83
2022/05/18 00:59:19;;;;;;;1414.15;418.35;;;;;;;;;;6349005;22;20043;-84
2022/05/18 01:01:45;;;;;;;;;;;;;;;;;;6328440;22;20011;-85
2022/05/18 01:04:13;;;;;;;1384.60;410.20;;;;;;;;;;6344000;22;19903;-85
2022/05/18 01:06:42;;;;;;;1395.65;413.85;;;;;;;;;;6339412;22;19999;-87
2022/05/18 01:09:10;;;;;;;1416.78;422.85;;;;;;;;;;6334707;22;19999;-86
2022/05/18 01:11:39;;;;;;;1423.97;425.23;;;;;;;;;;6334576;22;20009;-85
2022/05/18 01:14:07;;;;;;;1427.50;427.65;;;;;;;;;;6333881;22;20466;-84
2022/05/18 01:16:33;;;;;;;1409.15;419.08;;;;;;;;;;6333926;22;19998;-85
2022/05/18 01:19:00;;;;;;;1406.95;419.92;;;;;;;;;;6334084;22;20436;-86
2022/05/18 01:21:30;;;;;;;1462.72;440.45;;;;;;;;;;6334060;22;20021;-84
2022/05/18 01:23:56;;;;;;;1448.25;433.90;;;;;;;;;;6334160;22;20454;-89
2022/05/18 01:27:00;;;;;;;1415.47;418.40;;;;;;;;;;6306527;22;20065;-86
2022/05/18 01:29:26;;;;;;;1407.35;415.25;;;;;;;;;;6153374;23;20001;-85
2022/05/18 01:32:01;;;;;;;1411.63;419.70;;;;;;;;;;6306151;22;20087;-87
2022/05/18 01:34:28;;;;;;;1404.43;418.25;;;;;;;;;;6306250;22;20034;-85
2022/05/18 01:36:54;;;;;;;1422.20;425.15;;;;;;;;;;6306126;22;20094;-88
2022/05/18 01:39:20;;;;;;;1427.57;425.67;;;;;;;;;;6334197;22;19999;-85
2022/05/18 01:41:51;;;;;;;1417.57;421.15;;;;;;;;;;6333834;22;19999;-84
2022/05/18 01:44:17;;;;;;;1395.55;412.00;;;;;;;;;;6334262;22;20038;-84
2022/05/18 01:46:43;;;;;;;1431.13;427.42;;;;;;;;;;6335845;22;19995;-93
2022/05/18 01:49:09;;;;;;;1412.95;418.73;;;;;;;;;;6334527;22;20006;-83
2022/05/18 01:51:39;;;;;;;1426.28;424.67;;;;;;;;;;6334121;22;19994;-84
2022/05/18 01:54:05;;;;;;;1431.18;430.02;;;;;;;;;;6334218;22;20002;-86
2022/05/18 01:56:32;;;;;;;1440.43;435.10;;;;;;;;;;6340156;22;20022;-88
2022/05/18 01:58:58;;;;;;;1431.28;431.13;;;;;;;;;;6313973;22;20007;-90
2022/05/18 02:01:24;;;;;;;1433.47;435.10;;;;;;;;;;6309132;22;19999;-85
2022/05/18 02:03:51;;;;;;;1441.32;434.23;;;;;;;;;;6308557;22;20018;-85
2022/05/18 02:06:17;;;;;;;1444.78;435.85;;;;;;;;;;6338812;22;20334;-85
2022/05/18 02:08:43;;;;;;;1425.55;430.10;;;;;;;;;;6339301;22;20419;-85
2022/05/18 02:11:14;;;;;;;1420.88;426.65;;;;;;;;;;6335508;22;19999;-87
2022/05/18 02:13:40;;;;;;;1414.20;427.42;;;;;;;;;;6305866;22;20003;-87
2022/05/18 02:16:06;;;;;;;1398.68;424.63;;;;;;;;;;6333437;22;19995;-87
2022/05/18 02:18:32;;;;;;;1421.60;434.98;;;;;;;;;;6333704;22;20006;-87
2022/05/18 02:20:59;;;;;;;1437.20;443.20;;;;;;;;;;6305424;22;19998;-87
2022/05/18 02:23:25;;;;;;;1465.88;455.08;;;;;;;;;;6333531;22;20029;-88
2022/05/18 02:25:51;;;;;;;1478.00;457.35;;;;;;;;;;6333454;22;20431;-87
2022/05/18 02:28:17;;;;;;;1462.57;449.42;;;;;;;;;;6307119;22;20083;-90
2022/05/18 02:30:43;;;;;;;1477.20;456.42;;;;;;;;;;6334110;22;19999;-86
2022/05/18 02:33:09;;;;;;;1468.47;454.17;;;;;;;;;;6307875;22;20006;-88
2022/05/18 02:35:36;;;;;;;1469.35;454.15;;;;;;;;;;6306364;22;20006;-86
2022/05/18 02:38:03;;;;;;;1490.75;466.85;;;;;;;;;;6306298;22;20006;-86
2022/05/18 02:40:29;;;;;;;1480.45;459.90;;;;;;;;;;6333510;22;20078;-87
2022/05/18 02:42:55;;;;;;;1470.13;462.67;;;;;;;;;;6334603;22;20049;-88
2022/05/18 02:45:21;;;;;;;1464.10;457.33;;;;;;;;;;6333972;22;20327;-89
2022/05/18 02:47:48;;;;;;;1459.75;455.48;;;;;;;;;;6334867;22;20189;-86
2022/05/18 02:50:16;;;;;;;1487.15;466.90;;;;;;;;;;6334571;22;19999;-87
2022/05/18 02:52:42;;;;;;;1493.63;468.88;;;;;;;;;;6306822;22;20030;-85
2022/05/18 02:57:53;;;;;;;1483.18;467.20;;;;;;;;;;6333790;22;20018;-88
2022/05/18 03:00:20;;;;;;;1488.43;469.33;;;;;;;;;;6335278;22;19995;-89
2022/05/18 03:02:46;;;;;;;1475.20;466.17;;;;;;;;;;6334637;22;20011;-89
2022/05/18 03:05:12;;;;;;;1504.50;480.13;;;;;;;;;;6334038;22;20033;-87
2022/05/18 03:07:38;;;;;;;1532.70;491.25;;;;;;;;;;6306726;22;20042;-87
2022/05/18 03:10:05;;;;;;;1554.60;501.25;;;;;;;;;;6308235;22;20462;-86
2022/05/18 03:12:31;;;;;;;1542.82;496.80;;;;;;;;;;6335768;22;20006;-86
2022/05/18 03:14:57;;;;;;;1535.50;495.02;;;;;;;;;;6307791;22;19998;-85
2022/05/18 03:17:23;;;;;;;1535.30;496.85;;;;;;;;;;6307592;22;20007;-86
2022/05/18 03:19:49;;;;;;;1524.50;491.25;;;;;;;;;;6309172;22;19999;-87
2022/05/18 03:25:00;;;;;;;1536.00;498.10;;;;;;;;;;6335925;22;20019;-85
2022/05/18 03:27:26;;;;;;;1524.78;495.38;;;;;;;;;;6335726;22;19999;-87
2022/05/18 03:29:52;;;;;;;1536.75;500.58;;;;;;;;;;6335930;22;19995;-86
2022/05/18 03:32:22;;;;;;;1624.10;491.15;;;;;;;;;;6335128;22;20372;-89
2022/05/18 03:34:49;;;;;;;1580.93;496.38;;;;;;;;;;6336746;22;20013;-87
2022/05/18 03:37:16;;;;;;;1550.43;494.40;;;;;;;;;;6309658;22;20034;-87
2022/05/18 03:39:42;;;;;;;1556.85;501.13;;;;;;;;;;6317361;22;20373;-86
2022/05/18 03:42:08;;;;;;;1551.68;502.60;;;;;;;;;;6361813;22;20030;-84
2022/05/18 03:44:35;;;;;;;1545.38;502.88;;;;;;;;;;6349428;22;20002;-85
2022/05/18 03:47:01;;;;;;;1541.43;503.90;;;;;;;;;;6343542;22;20003;-86
2022/05/18 03:49:27;;;;;;;1534.95;500.15;;;;;;;;;;6335767;22;19999;-87
2022/05/18 03:51:53;;;;;;;1581.95;520.63;;;;;;;;;;6335008;22;20387;-86
2022/05/18 03:54:19;;;;;;;1733.68;530.75;;;;;;;;;;6334677;22;20341;-85
2022/05/18 03:56:45;;;;;;;1664.63;528.83;;;;;;;;;;6306777;22;19998;-85
2022/05/18 03:59:12;;;;;;;1761.93;525.72;;;;;;;;;;6333509;22;20352;-84
2022/05/18 04:01:40;;;;;;;1686.43;527.90;;;;;;;;;;6307100;22;20013;-84
2022/05/18 04:04:06;;;;;;;1645.95;528.05;;;;;;;;;;6334279;22;20002;-85
2022/05/18 04:06:33;;;;;;;1640.05;532.40;;;;;;;;;;6334537;22;19999;-86
2022/05/18 04:08:59;;;;;;;1679.38;505.38;;;;;;;;;;6332820;22;20341;-87
2022/05/18 04:11:24;;;;;;;1621.40;509.48;;;;;;;;;;6307142;22;20003;-85
2022/05/18 04:13:51;;;;;;;1572.60;504.90;;;;;;;;;;6335755;22;20006;-86
2022/05/18 04:16:17;;;;;;;1556.80;502.15;;;;;;;;;;6335025;22;20030;-88
2022/05/18 04:18:43;;;;;;;1556.05;510.67;;;;;;;;;;6307227;22;19999;-88
2022/05/18 04:21:10;;;;;;;1554.70;512.28;;;;;;;;;;6325130;22;20048;-86
2022/05/18 04:23:39;;;;;;;1683.83;513.17;;;;;;;;;;6331883;22;20433;-88
2022/05/18 04:26:05;;;;;;;1625.05;516.13;;;;;;;;;;6333657;22;20003;-87
2022/05/18 04:28:32;;;;;;;1591.78;517.10;;;;;;;;;;6333375;22;20007;-86
2022/05/18 04:30:58;;;;;;;1577.57;518.83;;;;;;;;;;6332626;22;20049;-85
2022/05/18 04:33:24;;;;;;;1567.13;519.22;;;;;;;;;;6306527;22;20007;-85
2022/05/18 04:35:51;;;;;;;1681.30;521.47;;;;;;;;;;6332394;22;20353;-87
2022/05/18 04:38:21;;;;;;;1628.75;522.30;;;;;;;;;;6334214;22;20024;-86
2022/05/18 04:40:48;;;;;;;1614.32;528.55;;;;;;;;;;6334372;22;20370;-88
2022/05/18 04:43:16;;;;;;;1715.93;528.57;;;;;;;;;;6332745;22;20582;-89
2022/05/18 04:45:45;;;;;;;1742.60;529.13;;;;;;;;;;6305216;22;20863;-89
2022/05/18 04:48:13;;;;;;;1625.50;519.55;;;;;;;;;;6334722;22;19999;-86
2022/05/18 04:50:39;;;;;;;;;;;;;;;;;;6335099;22;19995;-83
2022/05/18 04:53:05;;;;;;;1584.53;524.33;;;;;;;;;;6335904;22;19899;-87
2022/05/18 04:55:31;;;;;;;1607.07;535.75;;;;;;;;;;6307467;22;20022;-87
2022/05/18 04:58:01;;;;;;;1604.78;532.45;;;;;;;;;;6307251;22;20451;-92
2022/05/18 05:00:27;;;;;;;1606.47;534.78;;;;;;;;;;6334817;22;20007;-90
2022/05/18 05:02:57;;;;;;;1609.90;534.47;;;;;;;;;;6307828;22;20439;-88
2022/05/18 05:05:25;;;;;;;1604.05;532.63;;;;;;;;;;6312151;22;20003;-88
2022/05/18 05:07:52;;;;;;;1600.28;532.33;;;;;;;;;;6308846;22;20454;-87
2022/05/18 05:10:18;;;;;;;1597.57;530.03;;;;;;;;;;6307570;22;20003;-88
2022/05/18 05:12:45;;;;;;;1608.72;536.13;;;;;;;;;;6336068;22;20078;-90
2022/05/18 05:15:11;;;;;;;1631.18;496.35;;;;;;;;;;6305761;22;20432;-90
2022/05/18 05:17:38;;;;;;;1587.22;498.10;;;;;;;;;;6334418;22;20001;-88
2022/05/18 05:20:04;;;;;;;1594.05;512.05;;;;;;;;;;6306648;22;20003;-89
2022/05/18 05:22:31;;;;;;;1561.93;501.10;;;;;;;;;;6334596;22;20495;-89
2022/05/18 05:24:57;;;;;;;1565.78;506.35;;;;;;;;;;6334386;22;19995;-89
2022/05/18 05:27:23;;;;;;;1538.57;494.65;;;;;;;;;;6334974;22;19998;-90
2022/05/18 05:29:50;;;;;;;1565.85;506.70;;;;;;;;;;6334392;22;20385;-88
2022/05/18 05:32:16;;;;;;;1561.03;500.88;;;;;;;;;;6333883;22;20447;-89
2022/05/18 05:34:42;;;;;;;1552.35;497.67;;;;;;;;;;6333702;22;20455;-89
2022/05/18 05:37:08;;;;;;;1567.70;503.73;;;;;;;;;;6334662;22;20014;-88
2022/05/18 05:39:34;;;;;;;1564.75;500.38;;;;;;;;;;6307222;22;20090;-90
2022/05/18 05:42:00;;;;;;;1571.35;499.98;;;;;;;;;;6334764;22;19999;-89
2022/05/18 05:44:27;;;;;;;1576.25;500.40;;;;;;;;;;6307916;22;20038;-88
2022/05/18 05:46:53;;;;;;;1587.85;509.02;;;;;;;;;;6335893;22;19995;-90
2022/05/18 05:49:19;;;;;;;1605.53;517.00;;;;;;;;;;6307094;22;20063;-89
2022/05/18 05:51:45;;;;;;;1619.55;524.75;;;;;;;;;;6334811;22;20006;-89
2022/05/18 05:54:11;;;;;;;1609.68;521.60;;;;;;;;;;6334685;22;20002;-89
2022/05/18 05:56:37;;;;;;;1622.85;527.78;;;;;;;;;;6334830;22;20005;-89
2022/05/18 05:59:03;;;;;;;1635.85;531.15;;;;;;;;;;6334364;22;20002;-88
2022/05/18 06:01:30;;;;;;;1650.00;532.22;;;;;;;;;;6334601;22;19943;-88
2022/05/18 06:03:56;;;;;;;1630.80;530.00;;;;;;;;;;6335321;22;19907;-90
2022/05/18 06:06:22;;;;;;;1647.85;536.78;;;;;;;;;;6334840;22;20059;-88
2022/05/18 06:08:49;;;;;;;1669.85;552.33;;;;;;;;;;6334416;22;20002;-88
2022/05/18 06:11:15;;;;;;;1668.60;549.50;;;;;;;;;;6334599;22;20059;-87
2022/05/18 06:13:41;;;;;;;1674.35;555.92;;;;;;;;;;6334942;22;20012;-88
2022/05/18 06:16:08;;;;;;;1709.25;566.50;;;;;;;;;;6340558;22;19994;-84
2022/05/18 06:18:35;;;;;;;1687.97;547.45;;;;;;;;;;6360612;22;19983;-85
2022/05/18 06:21:01;;;;;;;1665.43;541.28;;;;;;;;;;6333818;22;20051;-86
2022/05/18 06:23:27;;;;;;;1695.95;551.55;;;;;;;;;;6359850;22;20011;-87
2022/05/18 06:25:58;;;;;;;1693.90;547.92;;;;;;;;;;6322502;22;20005;-87
2022/05/18 06:28:24;;;;;;;1700.45;547.25;;;;;;;;;;6335813;22;20002;-87
2022/05/18 06:30:50;;;;;;;1698.72;541.60;;;;;;;;;;6334195;22;20510;-88
2022/05/18 06:33:16;;;;;;;1717.88;548.10;;;;;;;;;;6334027;22;19999;-89
2022/05/18 06:35:45;;;;;;;1722.70;544.72;;;;;;;;;;6306057;22;19914;-87
2022/05/18 06:38:10;;;;;;;;;;;;;;;;;;6307168;22;20075;-88
2022/05/18 06:43:22;;;;;;;1708.55;535.33;;;;;;;;;;6335216;22;20465;-88
2022/05/18 06:45:49;;;;;;;1710.45;540.85;;;;;;;;;;6335998;22;20556;-88
2022/05/18 06:48:15;;;;;;;1714.95;541.17;;;;;;;;;;6335762;22;19898;-87
2022/05/18 06:50:41;;;;;;;1719.97;539.72;;;;;;;;;;6335777;22;20040;-88
2022/05/18 06:53:07;;;;;;;1720.93;543.30;;;;;;;;;;6308291;22;20014;-87
2022/05/18 06:55:33;;;;;;;1718.13;539.35;;;;;;;;;;6335749;22;19995;-88
2022/05/18 06:57:59;;;;;;;1734.80;547.80;;;;;;;;;;6336638;22;20006;-90
2022/05/18 07:00:25;;;;;;;1725.55;544.90;;;;;;;;;;6308634;22;20002;-86
2022/05/18 07:02:51;;;;;;;1764.93;561.50;;;;;;;;;;6335735;22;20036;-91
2022/05/18 07:05:18;;;;;;;1759.82;560.13;;;;;;;;;;6335815;22;20048;-88
2022/05/18 07:07:44;;;;;;;1764.10;563.22;;;;;;;;;;6335324;22;20059;-86
2022/05/18 07:10:10;;;;;;;1771.55;562.92;;;;;;;;;;6335242;22;20035;-87
2022/05/18 07:12:37;;;;;;;1758.88;555.38;;;;;;;;;;6335060;22;19999;-89
2022/05/18 07:15:04;;;;;;;1750.25;555.63;;;;;;;;;;6335317;22;19994;-86
2022/05/18 07:17:31;;;;;;;1781.25;564.47;;;;;;;;;;6308758;22;20389;-91
2022/05/18 07:19:57;;;;;;;1801.15;567.95;;;;;;;;;;6307410;22;20335;-87
2022/05/18 07:22:23;;;;;;;1916.28;568.78;;;;;;;;;;6332971;22;20629;-87
2022/05/18 07:24:50;;;;;;;1875.70;574.13;;;;;;;;;;6334934;22;20034;-86
2022/05/18 07:27:16;;;;;;;1877.10;583.33;;;;;;;;;;6334756;22;19995;-87
2022/05/18 07:29:42;;;;;;;1838.53;567.72;;;;;;;;;;6307522;22;20002;-85
2022/05/18 07:32:08;;;;;;;1842.53;573.33;;;;;;;;;;6334746;22;20010;-86
2022/05/18 07:34:35;;;;;;;1861.20;579.17;;;;;;;;;;6307229;22;20002;-85
2022/05/18 07:37:01;;;;;;;1987.18;579.90;;;;;;;;;;6334012;22;20427;-87
2022/05/18 07:39:30;;;;;;;1934.22;581.95;;;;;;;;;;6335044;22;19999;-88
2022/05/18 07:41:57;;;;;;;1928.18;588.17;;;;;;;;;;6334817;22;20078;-86
2022/05/18 07:44:23;;;;;;;1896.03;581.13;;;;;;;;;;6335419;22;20081;-88
2022/05/18 07:46:49;;;;;;;1863.03;571.55;;;;;;;;;;6334974;22;20347;-86
2022/05/18 07:49:15;;;;;;;1897.80;580.90;;;;;;;;;;6335203;22;20070;-89
2022/05/18 07:51:41;;;;;;;1992.35;573.65;;;;;;;;;;6305530;22;20345;-90
2022/05/18 07:54:07;;;;;;;1934.40;574.35;;;;;;;;;;6335115;22;20450;-90
2022/05/18 07:56:34;;;;;;;1887.85;565.72;;;;;;;;;;6335974;22;19995;-86
2022/05/18 07:59:00;;;;;;;1913.30;579.03;;;;;;;;;;6308590;22;19948;-89
2022/05/18 08:01:26;;;;;;;1917.95;580.38;;;;;;;;;;6335059;22;19999;-88
2022/05/18 08:03:53;;;;;;;1932.05;586.83;;;;;;;;;;6307535;22;20011;-87
2022/05/18 08:06:19;;;;;;;1999.90;593.10;;;;;;;;;;6333007;22;20333;-87
2022/05/18 08:08:45;;;;;;;1976.30;582.35;;;;;;;;;;6335142;22;20026;-91
2022/05/18 08:16:40;;;;;;;1944.07;582.53;;;;;;;;;;6334995;22;20018;-87
2022/05/18 08:19:10;;;;;;;1958.18;589.88;;;;;;;;;;6307384;22;20001;-87
2022/05/18 08:21:37;;;;;;;1999.90;597.05;;;;;;;;;;6333839;22;20890;-88
2022/05/18 08:24:05;;;;;;;1999.90;593.22;;;;;;;;;;6308514;22;20521;-87
2022/05/18 08:26:31;;;;;;;1989.17;588.23;;;;;;;;;;6334860;22;20377;-90
2022/05/18 08:28:57;;;;;;;1961.07;579.88;;;;;;;;;;6335236;22;20229;-90
2022/05/18 08:31:23;;;;;;;1946.72;577.20;;;;;;;;;;6308993;22;19999;-89
2022/05/18 08:33:50;;;;;;;1979.43;587.83;;;;;;;;;;6307349;22;20026;-86
2022/05/18 08:36:18;;;;;;;1976.72;584.72;;;;;;;;;;6334737;22;20354;-86
2022/05/18 08:38:44;;;;;;;;;;;;;;;;;;6307282;22;20007;-87
2022/05/18 08:41:25;;;;;;;1992.45;591.88;;;;;;;;;;6334226;22;19951;-87
2022/05/18 08:43:53;;;;;;;1999.90;589.40;;;;;;;;;;6332655;22;20372;-89
2022/05/18 08:46:39;;;;;;;1999.90;591.13;;;;;;;;;;6334307;22;20003;-88
2022/05/18 08:49:24;;;;;;;1999.90;584.45;;;;;;;;;;6335422;22;19999;-88
2022/05/18 08:51:56;;;;;;;1999.90;586.90;;;;;;;;;;6306687;22;20079;-86
2022/05/18 08:54:25;;;;;;;1999.90;594.67;;;;;;;;;;6335330;22;20488;-88
2022/05/18 08:56:53;;;;;;;1989.75;585.47;;;;;;;;;;6355267;22;19999;-88
2022/05/18 08:59:23;;;;;;;1985.70;586.40;;;;;;;;;;6358356;22;20002;-86
2022/05/18 09:01:51;;;;;;;1977.82;584.42;;;;;;;;;;6361779;22;19998;-85
2022/05/18 09:04:26;;;;;;;1957.63;577.45;;;;;;;;;;6315441;22;20503;-86
2022/05/18 09:07:03;;;;;;;1960.80;580.15;;;;;;;;;;6336493;22;20030;-85
2022/05/18 09:12:17;;;;;;;1964.05;580.85;;;;;;;;;;6334407;22;20063;-86
2022/05/18 09:14:44;;;;;;;1973.22;583.75;;;;;;;;;;6334004;22;20331;-86
2022/05/18 09:17:30;;;;;;;1913.30;564.42;;;;;;;;;;6334113;22;20006;-86
2022/05/18 09:20:13;;;;;;;1947.40;579.17;;;;;;;;;;6334262;22;19998;-87
2022/05/18 09:22:44;;;;;;;1928.75;571.28;;;;;;;;;;6334971;22;20014;-88
2022/05/18 09:25:29;;;;;;;1911.15;563.28;;;;;;;;;;6334114;22;20025;-86
2022/05/18 09:28:04;;;;;;;1957.82;580.35;;;;;;;;;;6306065;22;19999;-86
2022/05/18 09:30:44;;;;;;;1958.93;573.65;;;;;;;;;;6334148;22;20003;-87
2022/05/18 09:33:24;;;;;;;1958.57;572.83;;;;;;;;;;6306534;22;20060;-85
2022/05/18 09:35:56;;;;;;;1999.90;592.45;;;;;;;;;;6304348;22;20674;-88
2022/05/18 09:38:42;;;;;;;1999.90;586.03;;;;;;;;;;6306150;22;20077;-87
2022/05/18 09:41:12;;;;;;;1993.93;573.15;;;;;;;;;;6334929;22;19999;-86
2022/05/18 09:43:46;;;;;;;1954.75;562.80;;;;;;;;;;6335020;22;20010;-87
2022/05/18 09:46:13;;;;;;;1998.13;577.97;;;;;;;;;;6334416;22;20019;-88
2022/05/18 09:49:05;;;;;;;1983.43;575.57;;;;;;;;;;6334949;22;20414;-87
2022/05/18 09:51:31;;;;;;;1999.90;581.55;;;;;;;;;;6327245;22;20225;-87
2022/05/18 09:53:59;;;;;;;1983.72;574.75;;;;;;;;;;6334089;22;20066;-89
2022/05/18 09:56:28;;;;;;;1999.90;587.65;;;;;;;;;;6306543;22;19898;-92
2022/05/18 09:58:57;;;;;;;1999.90;583.05;;;;;;;;;;6306900;22;19995;-91
2022/05/18 10:09:52;;;;;;;1954.00;568.72;;;;;;;;;;6333828;22;20049;-91
2022/05/18 10:12:23;;;;;;;1935.38;564.78;;;;;;;;;;6333864;22;19998;-87
2022/05/18 10:14:51;;;;;;;1944.32;564.13;;;;;;;;;;6333838;22;19999;-86
2022/05/18 10:17:20;;;;;;;1926.93;558.95;;;;;;;;;;6333366;22;20002;-88
2022/05/18 10:19:51;;;;;;;1960.93;568.38;;;;;;;;;;6333836;22;19995;-87
2022/05/18 10:22:19;;;;;;;1954.05;563.85;;;;;;;;;;6333694;22;20010;-87
2022/05/18 10:25:13;;;;;;;1991.13;576.53;;;;;;;;;;6306884;22;20057;-90
2022/05/18 10:27:44;;;;;;;1997.78;577.38;;;;;;;;;;6329705;22;20011;-88
2022/05/18 10:30:10;;;;;;;1986.85;572.97;;;;;;;;;;6334721;22;19999;-87
2022/05/18 10:32:57;;;;;;;1966.07;568.85;;;;;;;;;;6333742;22;20047;-87
2022/05/18 10:35:41;;;;;;;1953.05;568.53;;;;;;;;;;6333555;22;20007;-87
2022/05/18 10:38:28;;;;;;;1992.32;581.40;;;;;;;;;;6332702;22;20003;-87
2022/05/18 10:41:07;;;;;;;1967.63;574.10;;;;;;;;;;6332754;22;20059;-88
2022/05/18 10:43:35;;;;;;;1987.40;578.20;;;;;;;;;;6332624;22;20067;-88
2022/05/18 10:46:03;;;;;;;1993.63;582.97;;;;;;;;;;6304469;22;20006;-88
2022/05/18 10:48:30;;;;;;;1982.10;577.05;;;;;;;;;;6332784;22;20082;-88
2022/05/18 10:51:17;;;;;;;1999.55;582.10;;;;;;;;;;6304699;22;20060;-87
2022/05/18 10:53:45;;;;;;;1995.15;575.83;;;;;;;;;;6333298;22;20014;-87
2022/05/18 10:56:12;;;;;;;1999.90;590.70;;;;;;;;;;6334282;22;19995;-91
2022/05/18 10:58:46;;;;;;;1999.90;595.30;;;;;;;;;;6306262;22;20435;-92
2022/05/18 11:01:24;;;;;;;1996.65;580.58;;;;;;;;;;6306377;22;20385;-86
2022/05/18 11:03:55;;;;;;;1999.90;593.85;;;;;;;;;;6305554;22;20403;-88
2022/05/18 11:06:25;;;;;;;1999.90;591.70;;;;;;;;;;6336798;22;20331;-87
2022/05/18 11:08:51;;;;;;;1999.90;596.25;;;;;;;;;;6335833;22;20005;-86
2022/05/18 11:11:29;;;;;;;1999.90;588.67;;;;;;;;;;6333099;22;20094;-87
2022/05/18 11:14:06;;;;;;;1999.90;590.85;;;;;;;;;;6333191;22;19999;-90
2022/05/18 11:16:32;;;;;;;1999.90;594.60;;;;;;;;;;6333459;22;20002;-86
2022/05/18 11:19:17;;;;;;;1999.90;592.05;;;;;;;;;;6332569;22;20022;-88
2022/05/18 11:21:43;;;;;;;1999.90;587.65;;;;;;;;;;6333977;22;20007;-88
2022/05/18 11:24:27;;;;;;;1999.90;589.83;;;;;;;;;;6329848;22;20014;-87
2022/05/18 11:27:02;;;;;;;1999.90;598.35;;;;;;;;;;6331667;22;20006;-88
2022/05/18 11:29:31;;;;;;;1999.90;597.78;;;;;;;;;;6334056;22;20003;-87
2022/05/18 11:32:03;;;;;;;1999.90;593.25;;;;;;;;;;6334047;22;19995;-86
2022/05/18 11:34:38;;;;;;;1999.90;588.72;;;;;;;;;;6330949;22;20011;-88
2022/05/18 11:37:07;;;;;;;1999.90;595.42;;;;;;;;;;6357426;22;19991;-87
2022/05/18 11:39:36;;;;;;;1999.90;585.40;;;;;;;;;;6360429;22;20009;-87
2022/05/18 11:42:10;;;;;;;1999.90;594.95;;;;;;;;;;6363625;22;20010;-88
2022/05/18 11:44:55;;;;;;;1999.90;581.53;;;;;;;;;;6351306;22;19940;-86
2022/05/18 11:47:24;;;;;;;1999.90;591.28;;;;;;;;;;6343431;22;20002;-94
2022/05/18 11:50:05;;;;;;;1999.90;594.05;;;;;;;;;;6337081;22;20003;-88
2022/05/18 11:52:38;;;;;;;1999.90;593.75;;;;;;;;;;6335808;22;20049;-87
2022/05/18 11:55:21;;;;;;;1999.90;584.97;;;;;;;;;;6306974;22;20025;-87
2022/05/18 11:57:59;;;;;;;1999.90;585.92;;;;;;;;;;6334604;22;20005;-92
2022/05/18 12:01:07;;;;;;;1999.90;591.92;;;;;;;;;;6308322;22;20339;-92
2022/05/18 12:03:32;;;;;;;1999.90;588.53;;;;;;;;;;6320088;22;20011;-88
2022/05/18 12:06:17;;;;;;;1999.90;589.97;;;;;;;;;;6335271;22;20155;-90
2022/05/18 12:08:52;;;;;;;1999.90;591.00;;;;;;;;;;6335358;22;20009;-94
2022/05/18 12:11:36;;;;;;;1999.90;585.30;;;;;;;;;;6335701;22;19933;-90
2022/05/18 12:14:08;;;;;;;1999.90;576.08;;;;;;;;;;6307766;22;20335;-89
2022/05/18 12:16:54;;;;;;;1999.90;592.50;;;;;;;;;;6332505;22;20081;-88
2022/05/18 12:19:40;;;;;;;1999.90;592.90;;;;;;;;;;6308030;22;20430;-88
2022/05/18 12:22:13;;;;;;;1999.90;592.00;;;;;;;;;;6256024;22;20321;-87
2022/05/18 12:24:41;;;;;;;1999.90;587.70;;;;;;;;;;6333954;22;20011;-88
2022/05/18 12:27:08;;;;;;;1999.90;580.22;;;;;;;;;;6335053;22;19902;-89
2022/05/18 12:29:35;;;;;;;1999.90;581.95;;;;;;;;;;6333737;22;20014;-88
2022/05/18 12:32:02;;;;;;;1999.90;590.17;;;;;;;;;;6333413;22;19999;-87
2022/05/18 12:34:34;;;;;;;1999.90;586.30;;;;;;;;;;6305725;22;20014;-88
2022/05/18 12:37:04;;;;;;;1999.90;605.40;;;;;;;;;;6331110;22;20686;-87
2022/05/18 12:39:30;;;;;;;1999.90;602.25;;;;;;;;;;6331774;22;20446;-88
2022/05/18 12:41:57;;;;;;;1999.90;601.50;;;;;;;;;;6332984;22;20007;-89
2022/05/18 12:44:23;;;;;;;1999.90;587.65;;;;;;;;;;6305657;22;20310;-86
2022/05/18 12:47:00;;;;;;;1999.90;589.17;;;;;;;;;;6332997;22;20003;-87
2022/05/18 12:49:31;;;;;;;1999.90;582.03;;;;;;;;;;6333046;22;20348;-87
2022/05/18 12:52:23;;;;;;;1999.90;580.17;;;;;;;;;;6332455;22;20144;-87
2022/05/18 12:54:53;;;;;;;1999.90;585.40;;;;;;;;;;6274379;22;20015;-89
2022/05/18 12:57:45;;;;;;;1999.90;577.88;;;;;;;;;;6331899;22;19902;-90
2022/05/18 13:00:24;;;;;;;1999.90;563.42;;;;;;;;;;6304401;22;20317;-87
2022/05/18 13:02:57;;;;;;;1999.90;567.17;;;;;;;;;;6332585;22;20106;-89
2022/05/18 13:05:26;;;;;;;1999.90;575.35;;;;;;;;;;6304653;22;19899;-86
2022/05/18 13:07:53;;;;;;;1999.90;567.85;;;;;;;;;;6305517;22;20092;-92
2022/05/18 13:10:22;;;;;;;1999.90;562.80;;;;;;;;;;6305862;22;20010;-92
2022/05/18 13:12:56;;;;;;;1999.90;570.65;;;;;;;;;;6305795;22;20009;-88
2022/05/18 13:15:25;;;;;;;1999.90;573.22;;;;;;;;;;6304564;22;19898;-87
2022/05/18 13:17:52;;;;;;;1999.90;567.75;;;;;;;;;;6305247;22;20015;-89
2022/05/18 13:20:38;;;;;;;1999.90;571.15;;;;;;;;;;6305015;22;20006;-88
2022/05/18 13:23:08;;;;;;;1999.90;573.67;;;;;;;;;;6253720;22;20457;-87
2022/05/18 13:25:35;;;;;;;1999.90;576.13;;;;;;;;;;6303467;22;20447;-87
2022/05/18 13:28:03;;;;;;;1999.90;582.38;;;;;;;;;;6304948;22;20010;-88
2022/05/18 13:30:35;;;;;;;1999.90;582.88;;;;;;;;;;6332037;22;20029;-88
2022/05/18 13:33:02;;;;;;;1999.90;575.10;;;;;;;;;;6332729;22;19995;-88
2022/05/18 13:35:29;;;;;;;1999.90;571.30;;;;;;;;;;6331946;22;20011;-88
2022/05/18 13:38:04;;;;;;;1999.90;572.08;;;;;;;;;;6331978;22;20064;-86
2022/05/18 13:40:30;;;;;;;1999.90;571.13;;;;;;;;;;6332850;22;20007;-86
2022/05/18 13:42:58;;;;;;;1999.90;565.00;;;;;;;;;;6304794;22;20015;-88
2022/05/18 13:45:26;;;;;;;1999.90;563.97;;;;;;;;;;6332213;22;20010;-90
2022/05/18 13:47:54;;;;;;;1999.90;564.70;;;;;;;;;;6332528;22;20320;-87
2022/05/18 13:50:24;;;;;;;1999.90;567.10;;;;;;;;;;6304262;22;20393;-88
2022/05/18 13:52:51;;;;;;;1999.90;565.72;;;;;;;;;;6332337;22;20081;-87
2022/05/18 13:55:20;;;;;;;1999.90;564.87;;;;;;;;;;6332325;22;19998;-88
2022/05/18 13:57:49;;;;;;;1999.90;582.13;;;;;;;;;;6305250;22;20003;-87
2022/05/18 14:00:30;;;;;;;1999.90;570.65;;;;;;;;;;6332694;22;19999;-88
2022/05/18 14:02:58;;;;;;;1999.90;559.75;;;;;;;;;;6303862;22;20014;-87
2022/05/18 14:05:24;;;;;;;1999.90;571.55;;;;;;;;;;6332023;22;20068;-88
2022/05/18 14:07:52;;;;;;;1999.90;576.40;;;;;;;;;;6331748;22;20052;-87
2022/05/18 14:10:18;;;;;;;;;;;;;;;;;;6304852;22;20351;-87
2022/05/18 14:12:45;;;;;;;1999.90;572.92;;;;;;;;;;6333301;22;19898;-88
2022/05/18 14:15:12;;;;;;;;;;;;;;;;;;6305560;22;20351;-89
2022/05/18 14:17:39;;;;;;;1999.90;556.05;;;;;;;;;;6335833;22;19962;-87
2022/05/18 14:20:08;;;;;;;1999.90;575.42;;;;;;;;;;6346915;22;20025;-88